Latest Weather Observations for Gove Airport

IDD60801

Issued at 8:01 am CST Sunday 20 August 2017 (issued every 30 minutes, with the page automatically refreshed every 10 minutes)

About weather observations | Map of weather stations | Latest weather observations for NT | Other Formats
Station Details ID: 014508 Name: GOVE AIRPORT Lat: -12.27 Lon: 136.82 Height: 51.6 m
Data from the previous 72 hours. | See also: Recent months at Gove Airport
Date/Time
CST
Temp
°C
App
Temp
°C
Dew
Point
°C
Rel
Hum
%
Delta-T
°C
Wind Press
QNH
hPa
Press
MSL
hPa
Rain since
9am
mm
Dir  Spd
km/h
Gust
km/h
Spd
kts
Gust
kts
20/08:00am 25.0 27.8 21.5 81 2.3 SSE 9 11 5 6 1014.7 1014.4 0.0
20/07:30am 23.5 26.3 21.5 88 1.3 SSE 9 11 5 6 1014.5 1014.2 0.0
20/07:00am 20.0 22.1 19.4 96 0.4 SSE 7 9 4 5 1014.4 1014.1 0.0
20/06:59am 19.9 22.0 19.3 96 0.4 SE 7 9 4 5 1014.4 1014.1 0.0
20/06:38am 19.9 22.0 19.4 97 0.3 SE 7 7 4 4 1014.3 1014.0 0.0
20/06:30am 20.2 22.7 19.9 98 0.2 SE 6 7 3 4 1014.2 1013.9 0.0
20/06:00am 19.7 21.9 19.1 96 0.4 SE 6 6 3 3 1013.9 1013.6 0.0
20/05:30am 19.7 21.9 19.1 96 0.4 SE 6 7 3 4 1013.6 1013.3 0.0
20/05:03am 20.0 22.3 19.4 96 0.4 SE 6 7 3 4 1013.4 1013.1 0.0
20/05:00am 20.0 22.3 19.4 96 0.4 SE 6 6 3 3 1013.4 1013.1 0.0
20/04:50am 20.1 22.4 19.5 96 0.4 SE 6 6 3 3 1013.3 1013.0 0.0
20/04:30am 20.6 23.2 20.1 97 0.3 SE 6 6 3 3 1013.4 1013.1 0.0
20/04:00am 20.6 23.1 19.8 95 0.5 SE 6 6 3 3 1013.4 1013.1 0.0
20/03:30am 20.6 22.8 19.5 93 0.7 SE 7 9 4 5 1013.6 1013.3 0.0
20/03:00am 20.8 23.3 20.2 96 0.4 SE 7 7 4 4 1013.7 1013.4 0.0
20/02:30am 20.9 23.7 20.4 97 0.3 ESE 6 7 3 4 1013.5 1013.2 0.0
20/02:00am 21.1 25.1 20.5 96 0.4 CALM 0 6 0 3 1013.5 1013.2 0.0
20/01:30am 21.2 23.8 20.4 95 0.5 SE 7 9 4 5 1013.5 1013.2 0.0
20/01:00am 21.1 23.9 20.5 96 0.4 SE 6 7 3 4 1013.6 1013.3 0.0
20/12:30am 21.3 23.9 20.4 95 0.6 SE 7 7 4 4 1013.8 1013.5 0.0
20/12:00am 21.4 23.9 20.3 93 0.7 SE 7 9 4 5 1014.1 1013.8 0.0
 
Date/Time
CST
Temp
°C
App
Temp
°C
Dew
Point
°C
Rel
Hum
%
Delta-T
°C
Wind Press
QNH
hPa
Press
MSL
hPa
Rain since
9am
mm
Dir  Spd
km/h
Gust
km/h
Spd
kts
Gust
kts
19/11:30pm 22.0 24.4 20.8 93 0.8 SSE 9 11 5 6 1014.2 1013.9 0.0
19/11:18pm 22.0 24.8 20.8 93 0.8 SSE 7 9 4 5 1014.2 1013.9 0.0
19/11:00pm 22.3 24.8 21.1 93 0.8 SSE 9 11 5 6 1014.4 1014.1 0.0
19/10:30pm 22.7 25.5 21.5 93 0.8 SSE 9 9 5 5 1014.5 1014.2 0.0
19/10:00pm 23.1 26.1 22.0 93 0.7 SSE 9 11 5 6 1014.6 1014.3 0.0
19/09:30pm 23.3 26.8 22.9 98 0.3 SSE 9 11 5 6 1014.7 1014.4 0.0
19/09:00pm 24.1 27.7 23.7 98 0.3 SE 11 15 6 8 1014.7 1014.4 0.0
19/08:30pm 24.1 27.5 24.0 99 0.1 SSE 13 19 7 10 1014.3 1014.0 0.0
19/08:00pm 24.3 28.2 24.3 100 0.0 SSE 11 17 6 9 1013.9 1013.6 0.0
19/07:30pm 24.4 28.0 24.4 100 0.0 SSE 13 15 7 8 1013.5 1013.2 0.0
19/07:00pm 24.7 28.5 24.7 100 0.0 SSE 13 17 7 9 1013.1 1012.8 0.0
19/06:58pm 24.7 28.5 24.7 100 0.0 SSE 13 17 7 9 1013.0 1012.7 0.0
19/06:30pm 25.2 28.9 25.2 100 0.0 SSE 15 20 8 11 1012.5 1012.2 0.0
19/06:00pm 26.0 29.9 26.0 100 0.0 SSE 17 20 9 11 1012.4 1012.1 0.0
19/05:30pm 26.9 30.8 26.9 100 0.0 SSE 20 28 11 15 1012.1 1011.8 0.0
19/05:00pm 27.8 32.1 27.5 98 0.2 SE 20 30 11 16 1012.0 1011.7 0.0
19/04:30pm 27.9 32.1 27.9 100 0.0 SE 22 32 12 17 1012.1 1011.8 0.0
19/04:00pm 28.7 33.9 28.7 100 0.0 SE 20 30 11 16 1012.0 1011.7 0.0
19/03:30pm 29.7 35.4 29.3 98 0.3 SE 20 30 11 16 1012.0 1011.7 0.0
19/03:00pm 29.8 35.5 29.3 97 0.4 ESE 20 32 11 17 1012.3 1012.0 0.0
19/02:30pm 28.7 33.1 28.7 100 0.0 ESE 24 32 13 17 1012.6 1012.3 0.0
19/02:00pm 29.0 33.7 29.0 100 0.0 ESE 24 32 13 17 1013.0 1012.7 0.0
19/01:30pm 28.9 33.5 28.9 100 0.0 SE 24 35 13 19 1013.3 1013.0 0.0
19/01:00pm 29.4 35.3 29.4 100 0.0 SE 19 28 10 15 1013.6 1013.3 0.0
19/12:30pm 29.7 35.1 29.4 98 0.2 SE 22 30 12 16 1014.3 1014.0 0.0
19/12:00pm 29.5 35.3 29.5 100 0.0 SE 20 32 11 17 1014.6 1014.3 0.0
19/11:30am 29.8 35.2 29.5 98 0.2 ESE 22 32 12 17 1014.9 1014.6 0.0
19/11:00am 28.8 33.7 28.8 100 0.0 SE 22 28 12 15 1015.4 1015.1 0.0
19/10:30am 29.3 33.9 28.9 98 0.3 ESE 24 33 13 18 1015.8 1015.5 0.0
19/10:00am 27.8 31.6 27.8 100 0.0 ESE 24 30 13 16 1016.0 1015.7 0.0
19/09:30am 27.9 28.7 21.8 69 4.1 ESE 20 32 11 17 1015.8 1015.5 0.0
19/09:00am 26.7 27.0 20.8 70 3.9 ESE 20 28 11 15 1015.7 1015.4 0.0
19/08:30am 26.6 28.2 21.5 73 3.4 ESE 15 20 8 11 1015.3 1015.0 0.0
19/08:00am 24.5 27.6 21.5 83 2.0 ESE 7 9 4 5 1015.0 1014.7 0.0
19/07:30am 21.9 26.3 21.3 96 0.4 CALM 0 0 0 0 1014.8 1014.5 0.0
19/07:00am 19.7 22.9 18.9 95 0.5 CALM 0 4 0 2 1014.4 1014.1 0.0
19/06:30am 20.6 23.1 19.8 95 0.5 SSE 6 7 3 4 1014.1 1013.8 0.0
19/06:00am 20.9 23.0 20.1 95 0.5 SSE 9 11 5 6 1013.8 1013.5 0.0
19/05:30am 20.2 22.3 19.4 95 0.5 SSE 7 9 4 5 1013.6 1013.3 0.0
19/05:00am 20.8 23.5 20.2 96 0.4 SSE 6 7 3 4 1013.3 1013.0 0.0
19/04:30am 21.3 24.0 20.7 96 0.4 SSE 7 9 4 5 1013.3 1013.0 0.0
19/04:00am 20.7 23.1 20.1 96 0.4 SSE 7 9 4 5 1013.0 1012.7 0.0
19/03:30am 20.9 23.4 20.3 96 0.4 SE 7 7 4 4 1013.1 1012.8 0.0
19/03:00am 21.3 24.0 20.7 96 0.4 SSE 7 9 4 5 1013.2 1012.9 0.0
19/02:30am 21.1 23.8 20.3 95 0.5 SE 6 6 3 3 1013.1 1012.8 0.0
19/02:00am 21.3 25.0 20.7 96 0.4 SE 2 6 1 3 1013.3 1013.0 0.0
19/01:49am 21.4 24.3 20.6 95 0.5 SE 6 7 3 4 1013.4 1013.1 0.0
19/01:30am 21.6 24.5 20.7 95 0.6 SE 6 6 3 3 1013.4 1013.1 0.0
19/01:27am 21.6 24.5 20.7 95 0.6 SE 6 6 3 3 1013.4 1013.1 0.0
19/01:00am 22.0 25.0 20.9 93 0.7 SE 6 7 3 4 1013.5 1013.2 0.0
19/12:30am 22.7 25.3 21.2 91 1.0 SSE 9 11 5 6 1013.8 1013.5 0.0
19/12:00am 23.1 25.8 21.3 90 1.2 SSE 9 11 5 6 1014.1 1013.8 0.0
 
Date/Time
CST
Temp
°C
App
Temp
°C
Dew
Point
°C
Rel
Hum
%
Delta-T
°C
Wind Press
QNH
hPa
Press
MSL
hPa
Rain since
9am
mm
Dir  Spd
km/h
Gust
km/h
Spd
kts
Gust
kts
18/11:30pm 23.8 26.1 21.4 86 1.6 SSE 11 17 6 9 1014.4 1014.1 0.0
18/11:00pm 24.0 25.9 21.4 85 1.7 SSE 13 17 7 9 1014.4 1014.1 0.0
18/10:30pm 24.0 26.3 21.3 85 1.8 SE 11 15 6 8 1014.5 1014.2 0.0
18/10:00pm 24.1 26.1 21.5 85 1.7 SE 13 19 7 10 1014.6 1014.3 0.0
18/09:30pm 24.2 26.6 21.6 85 1.7 SSE 11 15 6 8 1014.5 1014.2 0.0
18/09:00pm 24.4 27.0 22.0 86 1.6 SSE 11 17 6 9 1014.2 1013.9 0.0
18/08:30pm 24.4 26.4 22.2 87 1.5 SSE 15 19 8 10 1013.9 1013.6 0.0
18/08:00pm 24.4 26.5 22.5 89 1.3 SSE 15 19 8 10 1013.6 1013.3 0.0
18/07:30pm 24.3 27.3 23.3 94 0.7 SSE 13 19 7 10 1013.2 1012.9 0.0
18/07:06pm 24.4 27.8 24.1 98 0.2 SSE 13 17 7 9 1012.9 1012.6 0.0
18/07:00pm 24.5 27.7 24.4 99 0.1 SSE 15 19 8 10 1012.9 1012.6 0.0
18/06:53pm 24.6 28.3 24.6 100 0.0 SSE 13 19 7 10 1012.8 1012.5 0.0
18/06:30pm 25.0 29.0 25.0 100 0.0 SSE 13 20 7 11 1012.6 1012.3 0.0
18/06:00pm 25.8 29.9 25.8 100 0.0 SSE 15 19 8 10 1012.4 1012.1 0.0
18/05:30pm 26.4 30.2 26.4 100 0.0 SSE 19 28 10 15 1012.2 1011.9 0.0
18/05:00pm 27.0 31.0 27.0 100 0.0 SSE 20 30 11 16 1012.1 1011.8 0.0
18/04:30pm 27.4 31.6 27.4 100 0.0 SE 20 30 11 16 1011.9 1011.6 0.0
18/04:00pm 28.0 31.9 28.0 100 0.0 SE 24 35 13 19 1011.9 1011.6 0.0
18/03:30pm 28.6 32.9 28.5 99 0.1 SSE 24 32 13 17 1012.0 1011.7 0.0
18/03:00pm 28.8 33.8 28.4 98 0.3 SSE 20 30 11 16 1012.1 1011.8 0.0
18/02:30pm 28.7 33.8 28.6 99 0.1 SSE 20 30 11 16 1012.5 1012.2 0.0
18/02:00pm 29.4 34.8 29.4 100 0.0 SE 22 32 12 17 1012.8 1012.5 0.0
18/01:30pm 29.8 35.5 29.8 100 0.0 SE 22 30 12 16 1013.0 1012.7 0.0
18/01:00pm 28.5 33.2 28.5 100 0.0 SE 22 32 12 17 1013.5 1013.2 0.0
18/12:30pm 28.9 33.9 28.5 98 0.3 SE 20 30 11 16 1013.8 1013.5 0.0
18/12:00pm 28.4 33.1 28.0 98 0.3 SE 20 32 11 17 1014.3 1014.0 0.0
18/11:30am 28.4 33.1 27.2 93 0.9 SE 17 26 9 14 1014.7 1014.4 0.0
18/11:00am 27.9 31.4 26.9 94 0.7 SE 22 33 12 18 1015.1 1014.8 0.0
18/10:30am 27.7 31.9 27.1 97 0.4 ESE 19 26 10 14 1015.4 1015.1 0.0
18/10:00am 27.9 29.3 23.5 77 3.0 ESE 22 33 12 18 1015.5 1015.2 0.0
18/09:30am 28.3 27.2 19.4 58 5.8 E 24 32 13 17 1015.4 1015.1 0.0
18/09:00am 27.4 27.3 19.9 63 4.9 E 20 26 11 14 1015.1 1014.8 0.0
18/08:30am 26.8 28.1 20.2 67 4.3 E 13 20 7 11 1014.8 1014.5 0.0
18/08:00am 25.2 27.8 20.5 75 3.1 ESE 7 11 4 6 1014.3 1014.0 0.0
18/07:30am 22.5 25.6 21.1 92 0.9 SE 6 7 3 4 1014.1 1013.8 0.0
18/07:25am 22.2 25.3 21.0 93 0.8 SE 6 7 3 4 1014.0 1013.7 0.0
18/07:00am 19.9 23.3 19.4 97 0.3 CALM 0 0 0 0 1013.8 1013.5 0.0
18/06:30am 19.7 23.0 19.1 96 0.4 CALM 0 0 0 0 1013.5 1013.2 0.0
18/06:00am 19.9 23.3 19.3 96 0.4 CALM 0 0 0 0 1013.0 1012.7 0.0
18/05:30am 20.2 23.7 19.6 96 0.4 CALM 0 0 0 0 1012.6 1012.3 0.0
18/05:00am 19.5 22.8 19.0 97 0.3 CALM 0 0 0 0 1012.4 1012.1 0.0
18/04:30am 19.0 22.0 18.4 96 0.4 CALM 0 0 0 0 1012.2 1011.9 0.0
18/04:00am 19.0 22.0 18.5 97 0.3 CALM 0 0 0 0 1012.0 1011.7 0.0
18/03:30am 19.1 22.1 18.5 96 0.4 CALM 0 0 0 0 1012.1 1011.8 0.0
18/03:00am 19.0 22.0 18.4 96 0.4 CALM 0 0 0 0 1011.9 1011.6 0.0
18/02:37am 18.9 21.8 18.1 95 0.5 CALM 0 0 0 0 1011.9 1011.6 0.0
18/02:30am 19.2 22.2 18.4 95 0.5 CALM 0 0 0 0 1011.9 1011.6 0.0
18/02:00am 19.3 22.4 18.7 96 0.4 CALM 0 0 0 0 1012.1 1011.8 0.0
18/01:30am 19.3 21.7 18.7 96 0.4 S 4 7 2 4 1012.1 1011.8 0.0
18/01:00am 20.4 22.7 19.5 95 0.6 SE 6 7 3 4 1012.4 1012.1 0.0
18/12:30am 20.8 23.2 19.7 93 0.7 ESE 6 7 3 4 1012.4 1012.1 0.0
18/12:00am 21.0 23.4 19.7 92 0.8 SE 6 7 3 4 1012.4 1012.1 0.0
 
Date/Time
CST
Temp
°C
App
Temp
°C
Dew
Point
°C
Rel
Hum
%
Delta-T
°C
Wind Press
QNH
hPa
Press
MSL
hPa
Rain since
9am
mm
Dir  Spd
km/h
Gust
km/h
Spd
kts
Gust
kts
17/11:30pm 21.1 23.3 19.7 92 0.9 SE 7 9 4 5 1012.4 1012.1 0.0
17/11:00pm 21.3 23.5 19.6 90 1.1 SE 7 9 4 5 1012.5 1012.2 0.0
17/10:30pm 21.6 23.9 19.9 90 1.1 ESE 7 9 4 5 1012.4 1012.1 0.0
17/10:00pm 21.6 23.9 19.9 90 1.1 SE 7 7 4 4 1012.4 1012.1 0.0
17/09:30pm 21.8 24.1 19.8 88 1.3 SE 7 9 4 5 1012.4 1012.1 0.0
17/09:00pm 21.9 24.6 20.2 90 1.1 SE 6 7 3 4 1012.4 1012.1 0.0
17/08:30pm 22.8 25.0 20.3 86 1.6 SE 9 11 5 6 1012.3 1012.0 0.0
17/08:00pm 23.2 25.7 20.3 84 1.9 SE 7 9 4 5 1012.0 1011.7 0.0
17/07:30pm 23.9 25.8 20.5 81 2.2 SE 11 13 6 7 1011.8 1011.5 0.0
17/07:00pm 24.5 26.7 20.5 78 2.6 ESE 9 13 5 7 1011.7 1011.4 0.0
17/06:30pm 25.4 27.4 20.7 75 3.1 ESE 11 13 6 7 1011.5 1011.2 0.0
17/06:00pm 26.2 27.0 20.7 71 3.6 ESE 17 24 9 13 1011.3 1011.0 0.0
17/05:30pm 26.8 27.1 20.4 68 4.2 ESE 19 24 10 13 1011.0 1010.7 0.0
17/05:00pm 27.1 27.5 20.6 67 4.3 ESE 19 24 10 13 1011.1 1010.8 0.0
17/04:30pm 28.1 28.6 21.2 66 4.6 E 20 30 11 16 1011.0 1010.7 0.0
17/04:00pm 28.0 28.4 20.9 65 4.7 E 20 30 11 16 1011.1 1010.8 0.0
17/03:30pm 28.6 28.9 21.6 66 4.7 E 22 32 12 17 1011.2 1010.9 0.0
17/03:00pm 28.1 27.7 21.0 65 4.7 SE 24 30 13 16 1011.4 1011.1 0.0
17/02:30pm 29.4 28.5 19.8 56 6.3 ESE 24 33 13 18 1011.4 1011.1 0.0
17/02:00pm 29.6 28.5 19.5 54 6.6 ESE 24 32 13 17 1011.6 1011.3 0.0
17/01:30pm 29.8 29.3 19.2 53 6.9 E 20 30 11 16 1012.0 1011.7 0.0
17/01:00pm 29.8 29.4 18.8 51 7.1 ESE 19 30 10 16 1012.4 1012.1 0.0
17/12:30pm 30.1 29.3 18.1 48 7.7 ESE 19 35 10 19 1012.7 1012.4 0.0
17/12:00pm 29.6 28.5 17.7 48 7.6 E 20 28 11 15 1012.9 1012.6 0.0
17/11:30am 29.1 27.6 17.8 50 7.2 ESE 22 33 12 18 1013.4 1013.1 0.0
17/11:00am 28.6 27.6 17.9 52 6.8 ESE 20 33 11 18 1013.9 1013.6 0.0
17/10:30am 27.9 26.8 19.4 60 5.5 ESE 24 35 13 19 1014.2 1013.9 0.0
17/10:00am 27.9 27.3 19.8 61 5.3 ESE 22 32 12 17 1014.2 1013.9 0.0
17/09:30am 26.5 26.1 20.2 68 4.1 ESE 22 30 12 16 1014.1 1013.8 0.0
17/09:00am 27.0 27.3 20.8 69 4.1 ESE 20 28 11 15 1013.9 1013.6 0.0
17/08:30am 25.8 26.7 20.8 74 3.3 ESE 17 20 9 11 1013.5 1013.2 0.0

Other Formats:

Comma delimited format used in spreadsheet applications
http://www.bom.gov.au/fwo/IDD60801/IDD60801.94150.axf

JavaScript Object Notation format (JSON) in row-major order
http://www.bom.gov.au/fwo/IDD60801/IDD60801.94150.json